createdAt,value
2022-12-26T00:01:12.755Z,24.33
2022-12-26T00:03:40.204Z,27.75
2022-12-26T00:06:16.291Z,30.25
2022-12-26T00:08:44.535Z,28.15
2022-12-26T00:11:12.270Z,28.48
2022-12-26T00:13:42.807Z,28.48
2022-12-26T00:16:12.372Z,29.58
2022-12-26T00:18:39.950Z,25.02
2022-12-26T00:21:08.690Z,29.77
2022-12-26T00:23:36.535Z,29.00
2022-12-26T00:26:05.648Z,27.92
2022-12-26T00:28:32.588Z,30.15
2022-12-26T00:31:03.052Z,31.73
2022-12-26T00:33:30.143Z,28.98
2022-12-26T00:36:05.311Z,31.20
2022-12-26T00:38:32.304Z,31.25
2022-12-26T00:40:59.311Z,32.45
2022-12-26T00:43:26.500Z,34.67
2022-12-26T00:45:53.451Z,30.80
2022-12-26T00:48:20.532Z,36.17
2022-12-26T00:50:47.534Z,43.13
2022-12-26T00:53:14.515Z,37.88
2022-12-26T00:55:41.390Z,33.80
2022-12-26T00:58:08.495Z,36.10
2022-12-26T01:00:35.817Z,41.50
2022-12-26T01:03:03.290Z,38.75
2022-12-26T01:05:30.439Z,42.00
2022-12-26T01:08:21.184Z,40.22
2022-12-26T01:10:46.772Z,44.22
2022-12-26T01:13:14.621Z,49.35
2022-12-26T01:15:48.234Z,44.50
2022-12-26T01:18:15.340Z,43.37
2022-12-26T01:20:42.453Z,44.67
2022-12-26T01:23:09.478Z,44.45
2022-12-26T01:25:36.423Z,50.03
2022-12-26T01:28:23.503Z,47.85
2022-12-26T01:30:50.739Z,40.92
2022-12-26T01:33:17.686Z,44.22
2022-12-26T01:35:52.055Z,43.15
2022-12-26T01:40:47.086Z,46.35
2022-12-26T01:43:15.856Z,45.38
2022-12-26T01:45:49.861Z,40.58
2022-12-26T01:48:33.537Z,35.90
2022-12-26T01:51:06.213Z,39.13
2022-12-26T01:53:48.231Z,36.13
2022-12-26T01:56:23.887Z,30.42
2022-12-26T01:58:56.577Z,27.88
2022-12-26T02:01:29.107Z,31.05
2022-12-26T02:04:15.217Z,31.25
2022-12-26T02:06:42.939Z,28.70
2022-12-26T02:09:10.407Z,25.80
2022-12-26T02:11:45.397Z,22.27
2022-12-26T02:14:12.305Z,19.38
2022-12-26T02:16:41.135Z,17.67
2022-12-26T02:19:25.041Z,18.63
2022-12-26T02:22:53.624Z,18.92
2022-12-26T02:25:35.232Z,21.83
2022-12-26T02:28:23.752Z,22.48
2022-12-26T02:30:59.700Z,20.80
2022-12-26T02:33:41.864Z,23.60
2022-12-26T02:36:27.408Z,22.30
2022-12-26T02:39:45.664Z,22.23
2022-12-26T02:42:17.080Z,22.58
2022-12-26T02:45:13.475Z,21.77
2022-12-26T02:47:52.346Z,19.90
2022-12-26T02:50:40.837Z,21.33
2022-12-26T02:53:39.090Z,22.65
2022-12-26T02:56:53.532Z,22.80
2022-12-26T02:59:53.772Z,23.55
2022-12-26T03:02:55.101Z,23.63
2022-12-26T03:05:54.848Z,23.25
2022-12-26T03:08:49.545Z,23.00
2022-12-26T03:26:40.665Z,32.40
2022-12-26T03:29:34.492Z,33.83
2022-12-26T03:32:03.422Z,32.63
2022-12-26T03:34:30.451Z,29.35
2022-12-26T03:37:15.521Z,27.60
2022-12-26T03:40:32.913Z,29.90
2022-12-26T03:43:31.238Z,30.27
2022-12-26T03:46:41.928Z,28.67
2022-12-26T03:49:48.100Z,25.77
2022-12-26T03:52:42.453Z,27.05
2022-12-26T03:56:00.915Z,25.05
2022-12-26T03:58:55.167Z,25.55
2022-12-26T04:01:45.780Z,27.53
2022-12-26T04:04:34.308Z,30.05
2022-12-26T04:07:56.524Z,33.83
2022-12-26T04:10:57.365Z,31.30
2022-12-26T04:13:54.795Z,34.60
2022-12-26T04:17:03.430Z,35.25
2022-12-26T04:20:04.298Z,31.83
2022-12-26T04:22:59.995Z,33.95
2022-12-26T04:25:54.255Z,36.17
2022-12-26T04:28:41.705Z,32.00
2022-12-26T04:31:36.009Z,29.20
2022-12-26T04:34:28.311Z,34.80
2022-12-26T04:37:19.984Z,35.28
2022-12-26T04:40:10.668Z,34.90
2022-12-26T04:42:57.250Z,39.45
2022-12-26T04:45:24.402Z,31.83
2022-12-26T04:48:09.816Z,34.50
2022-12-26T04:50:37.100Z,35.45
2022-12-26T04:53:04.019Z,33.70
2022-12-26T04:55:33.377Z,32.20
2022-12-26T04:58:00.726Z,32.20
2022-12-26T05:00:28.925Z,35.22
2022-12-26T05:03:18.988Z,32.95
2022-12-26T05:06:07.377Z,34.65
2022-12-26T05:09:02.243Z,36.83
2022-12-26T05:11:30.946Z,40.20
2022-12-26T05:13:59.197Z,35.72
2022-12-26T05:16:46.351Z,38.08
2022-12-26T05:19:33.398Z,37.80
2022-12-26T05:22:20.967Z,40.47
2022-12-26T05:25:06.587Z,39.85
2022-12-26T05:27:58.812Z,42.22
2022-12-26T05:30:26.398Z,40.67
2022-12-26T05:33:11.732Z,43.35
2022-12-26T05:35:39.941Z,42.65
2022-12-26T05:38:09.720Z,43.78
2022-12-26T05:40:36.869Z,45.83
2022-12-26T05:43:03.823Z,43.00
2022-12-26T05:45:32.099Z,45.38
2022-12-26T05:48:03.329Z,46.55
2022-12-26T05:50:30.488Z,43.17
2022-12-26T05:52:59.552Z,35.63
2022-12-26T05:55:26.850Z,40.70
2022-12-26T05:57:53.953Z,30.67
2022-12-26T06:00:23.609Z,31.63
2022-12-26T06:02:50.751Z,26.83
2022-12-26T06:05:20.720Z,25.92
2022-12-26T06:07:50.673Z,24.95
2022-12-26T06:10:19.803Z,27.25
2022-12-26T06:12:46.816Z,26.10
2022-12-26T06:15:13.620Z,26.17
2022-12-26T06:17:40.596Z,20.15
2022-12-26T06:20:11.209Z,21.35
2022-12-26T06:22:38.369Z,19.98
2022-12-26T06:25:05.844Z,23.60
2022-12-26T06:27:33.247Z,26.05
2022-12-26T06:30:00.258Z,22.90
2022-12-26T06:32:27.191Z,21.95
2022-12-26T06:34:54.034Z,23.73
2022-12-26T06:37:20.984Z,18.17
2022-12-26T06:39:48.015Z,18.35
2022-12-26T06:42:14.946Z,19.95
2022-12-26T06:44:41.909Z,18.60
2022-12-26T06:47:09.164Z,20.08
2022-12-26T06:49:36.193Z,20.52
2022-12-26T06:52:03.158Z,16.77
2022-12-26T06:54:37.265Z,21.88
2022-12-26T06:57:04.169Z,19.23
2022-12-26T06:59:31.237Z,18.17
2022-12-26T07:01:58.551Z,16.90
2022-12-26T07:04:26.199Z,18.42
2022-12-26T07:06:53.194Z,17.38
2022-12-26T07:09:20.353Z,14.02
2022-12-26T07:11:49.603Z,14.38
2022-12-26T07:14:17.416Z,15.10
2022-12-26T07:16:45.365Z,19.08
2022-12-26T07:19:13.890Z,18.70
2022-12-26T07:21:41.628Z,16.70
2022-12-26T07:24:15.151Z,19.00
2022-12-26T07:26:42.301Z,19.67
2022-12-26T07:29:12.097Z,60.03
2022-12-26T07:31:39.663Z,16.70
2022-12-26T07:34:07.115Z,15.20
2022-12-26T07:36:34.080Z,14.10
2022-12-26T07:39:00.918Z,18.92
2022-12-26T07:41:47.848Z,20.42
2022-12-26T07:44:14.855Z,15.90
2022-12-26T07:46:41.810Z,14.05
2022-12-26T07:49:09.195Z,19.00
2022-12-26T07:51:36.098Z,21.02
2022-12-26T07:54:08.874Z,26.23
2022-12-26T07:56:37.923Z,28.80
2022-12-26T07:59:04.937Z,26.90
2022-12-26T08:01:31.942Z,26.25
2022-12-26T08:03:59.111Z,36.20
2022-12-26T08:06:26.034Z,31.67
2022-12-26T08:08:52.924Z,43.42
2022-12-26T08:11:22.999Z,55.10
2022-12-26T08:13:50.785Z,67.75
2022-12-26T08:16:18.310Z,79.22
2022-12-26T08:18:45.243Z,68.43
2022-12-26T08:21:14.170Z,82.13
2022-12-26T08:23:41.433Z,74.03
2022-12-26T08:26:12.138Z,73.53
2022-12-26T08:28:42.044Z,71.70
2022-12-26T08:31:10.476Z,75.22
2022-12-26T08:33:37.515Z,74.63
2022-12-26T08:36:06.131Z,72.20
2022-12-26T08:38:34.003Z,64.28
2022-12-26T08:41:01.430Z,58.63
2022-12-26T08:43:53.222Z,60.13
2022-12-26T08:46:16.686Z,47.22
2022-12-26T08:48:43.893Z,46.85
2022-12-26T08:51:20.024Z,50.03
2022-12-26T08:53:49.655Z,52.83
2022-12-26T08:56:19.687Z,48.60
2022-12-26T08:58:47.729Z,50.78
2022-12-26T09:01:21.001Z,56.28
2022-12-26T09:03:48.333Z,49.47
2022-12-26T09:06:15.875Z,44.75
2022-12-26T09:08:42.981Z,36.38
2022-12-26T09:11:15.715Z,31.92
2022-12-26T09:13:44.318Z,29.55
2022-12-26T09:16:15.563Z,31.35
2022-12-26T09:18:43.577Z,27.23
2022-12-26T09:21:11.945Z,25.10
2022-12-26T09:23:40.330Z,19.25
2022-12-26T09:26:13.511Z,21.08
2022-12-26T09:28:41.021Z,19.70
2022-12-26T09:31:11.981Z,21.02
2022-12-26T09:33:39.574Z,23.27
2022-12-26T09:36:14.184Z,16.65
2022-12-26T09:38:42.409Z,16.50
2022-12-26T09:41:24.291Z,13.27
2022-12-26T09:44:18.821Z,13.13
2022-12-26T09:47:08.216Z,14.88
2022-12-26T09:49:40.726Z,14.60
2022-12-26T09:52:21.008Z,15.48
2022-12-26T09:54:58.937Z,15.90
2022-12-26T09:57:41.762Z,14.55
2022-12-26T10:00:18.813Z,14.68
2022-12-26T10:02:53.228Z,11.02
2022-12-26T10:05:29.096Z,10.02
2022-12-26T10:08:03.640Z,10.05
2022-12-26T10:10:42.844Z,9.02
2022-12-26T10:13:44.082Z,7.30
2022-12-26T10:16:38.073Z,7.20
2022-12-26T10:19:32.677Z,5.70
2022-12-26T10:22:32.478Z,3.90
2022-12-26T10:25:01.719Z,5.65
2022-12-26T10:27:34.996Z,5.68
2022-12-26T10:30:06.426Z,5.97
2022-12-26T10:32:46.830Z,5.38
2022-12-26T10:35:37.696Z,5.03
2022-12-26T10:38:13.374Z,7.55
2022-12-26T10:40:44.637Z,5.20
2022-12-26T10:43:20.280Z,7.25
2022-12-26T10:46:18.270Z,6.90
2022-12-26T10:48:46.107Z,8.45
2022-12-26T10:51:14.128Z,8.38
2022-12-26T10:53:47.237Z,6.65
2022-12-26T10:56:18.234Z,8.43
2022-12-26T10:58:49.557Z,4.97
2022-12-26T11:01:30.121Z,4.35
2022-12-26T11:03:59.822Z,6.38
2022-12-26T11:06:43.044Z,5.75
2022-12-26T11:09:28.698Z,4.67
2022-12-26T11:11:58.591Z,4.80
2022-12-26T11:14:33.288Z,3.47
2022-12-26T11:17:14.127Z,4.30
2022-12-26T11:19:42.905Z,3.15
2022-12-26T11:22:23.414Z,5.07
2022-12-26T11:25:12.316Z,4.57
2022-12-26T11:27:54.058Z,6.18
2022-12-26T11:30:32.711Z,6.97
2022-12-26T11:33:30.743Z,5.25
2022-12-26T11:36:17.573Z,4.75
2022-12-26T11:38:56.047Z,3.72
2022-12-26T11:41:32.414Z,5.50
2022-12-26T11:44:05.576Z,5.43
2022-12-26T11:46:41.526Z,4.22
2022-12-26T11:49:37.868Z,5.18
2022-12-26T11:52:35.266Z,4.70
2022-12-26T11:55:02.427Z,8.07
2022-12-26T11:57:31.734Z,3.33
2022-12-26T12:00:22.162Z,3.08
2022-12-26T12:02:49.418Z,3.95
2022-12-26T12:05:28.652Z,4.28
2022-12-26T12:08:14.210Z,3.28
2022-12-26T12:11:09.610Z,3.63
2022-12-26T12:13:51.578Z,5.40
2022-12-26T12:16:42.816Z,5.03
2022-12-26T12:19:43.043Z,4.57
2022-12-26T12:22:18.825Z,5.28
2022-12-26T12:24:48.499Z,4.65
2022-12-26T12:27:36.968Z,3.22
2022-12-26T12:30:29.537Z,2.67
2022-12-26T12:33:23.582Z,13.30
2022-12-26T12:35:53.474Z,4.78
2022-12-26T12:38:56.531Z,5.78
2022-12-26T12:42:14.644Z,4.53
2022-12-26T12:45:00.131Z,3.72
2022-12-26T12:47:42.132Z,7.00
2022-12-26T12:51:10.187Z,4.97
2022-12-26T12:53:42.696Z,6.95
2022-12-26T12:56:41.948Z,19.30
2022-12-26T12:59:27.802Z,6.28
2022-12-26T13:02:07.193Z,7.70
2022-12-26T13:04:42.074Z,8.85
2022-12-26T13:07:25.252Z,5.35
2022-12-26T13:10:02.009Z,6.45
2022-12-26T13:12:36.334Z,7.15
2022-12-26T13:17:41.083Z,7.15
2022-12-26T13:20:40.521Z,7.97
2022-12-26T13:23:59.793Z,9.60
2022-12-26T13:27:03.419Z,8.23
2022-12-26T13:29:39.694Z,11.48
2022-12-26T13:32:29.731Z,7.97
2022-12-26T13:34:59.557Z,10.10
2022-12-26T13:37:35.427Z,13.23
2022-12-26T13:40:07.261Z,10.27
2022-12-26T13:42:56.487Z,10.60
2022-12-26T13:45:35.493Z,8.10
2022-12-26T13:48:23.180Z,10.48
2022-12-26T13:51:03.261Z,10.50
2022-12-26T13:53:34.447Z,11.57
2022-12-26T13:56:04.532Z,12.75
2022-12-26T13:58:43.500Z,10.68
2022-12-26T14:01:53.706Z,10.40
2022-12-26T14:04:31.019Z,13.95
2022-12-26T14:07:59.903Z,11.32
2022-12-26T14:10:48.645Z,14.57
2022-12-26T14:13:33.795Z,13.02
2022-12-26T14:16:28.485Z,12.45
2022-12-26T14:19:21.491Z,15.07
2022-12-26T14:22:06.062Z,13.40
2022-12-26T14:25:03.434Z,12.07
2022-12-26T14:27:42.969Z,12.15
2022-12-26T14:30:34.735Z,11.82
2022-12-26T14:33:20.476Z,13.90
2022-12-26T14:36:00.888Z,16.08
2022-12-26T14:38:40.917Z,16.08
2022-12-26T14:41:32.198Z,16.63
2022-12-26T14:44:21.639Z,13.20
2022-12-26T14:46:48.430Z,18.63
2022-12-26T14:49:35.225Z,19.83
2022-12-26T14:52:32.667Z,17.77
2022-12-26T14:54:59.707Z,22.13
2022-12-26T14:57:47.029Z,15.82
2022-12-26T15:00:34.754Z,17.20
2022-12-26T15:03:04.724Z,22.08
2022-12-26T15:05:37.743Z,21.13
2022-12-26T15:08:22.931Z,21.02
2022-12-26T15:11:20.250Z,18.30
2022-12-26T15:29:23.588Z,21.15
2022-12-26T15:32:13.498Z,24.20
2022-12-26T15:35:15.474Z,23.27
2022-12-26T15:37:52.367Z,23.33
2022-12-26T15:40:32.953Z,25.23
2022-12-26T15:42:59.833Z,21.50
2022-12-26T15:45:32.435Z,30.60
2022-12-26T15:48:04.992Z,22.60
2022-12-26T15:50:52.643Z,25.52
2022-12-26T15:53:29.704Z,20.67
2022-12-26T15:56:02.395Z,21.70
2022-12-26T15:58:35.330Z,26.27
2022-12-26T16:01:02.428Z,21.35
2022-12-26T16:03:29.671Z,23.90
2022-12-26T16:06:34.996Z,22.90
2022-12-26T16:09:24.772Z,22.95
2022-12-26T16:11:56.025Z,24.95
2022-12-26T16:14:30.997Z,23.67
2022-12-26T16:17:16.180Z,24.00
2022-12-26T16:19:48.500Z,43.25
2022-12-26T16:22:49.581Z,43.72
2022-12-26T16:25:23.978Z,28.02
2022-12-26T16:30:28.705Z,26.70
2022-12-26T16:32:56.323Z,25.42
2022-12-26T16:35:27.372Z,24.83
2022-12-26T16:37:57.158Z,22.48
2022-12-26T16:40:41.537Z,24.67
2022-12-26T16:43:17.716Z,21.98
2022-12-26T16:45:58.903Z,20.42
2022-12-26T16:48:28.309Z,22.42
2022-12-26T16:51:01.887Z,24.33
2022-12-26T16:53:34.491Z,15.83
2022-12-26T16:56:29.099Z,22.52
2022-12-26T16:59:17.998Z,21.90
2022-12-26T17:01:54.989Z,50.00
2022-12-26T17:04:24.517Z,24.70
2022-12-26T17:07:04.779Z,22.25
2022-12-26T17:09:39.403Z,33.25
2022-12-26T17:12:16.397Z,22.42
2022-12-26T17:14:47.476Z,23.50
2022-12-26T17:17:23.196Z,21.50
2022-12-26T17:19:54.405Z,22.08
2022-12-26T17:22:27.840Z,21.83
2022-12-26T17:25:17.517Z,26.33
2022-12-26T17:27:45.579Z,22.77
2022-12-26T17:30:27.553Z,24.83
2022-12-26T17:32:56.085Z,28.77
2022-12-26T17:35:26.025Z,23.30
2022-12-26T17:38:01.055Z,23.40
2022-12-26T17:40:33.785Z,27.95
2022-12-26T17:43:11.425Z,23.75
2022-12-26T17:45:46.818Z,27.17
2022-12-26T17:48:14.329Z,24.30
2022-12-26T17:50:44.163Z,27.45
2022-12-26T17:53:36.624Z,25.98
2022-12-26T17:56:06.650Z,26.90
2022-12-26T17:58:34.752Z,26.83
2022-12-26T18:01:02.295Z,21.17
2022-12-26T18:03:29.417Z,19.63
2022-12-26T18:05:56.621Z,30.83
2022-12-26T18:08:38.429Z,18.95
2022-12-26T18:11:10.939Z,26.65
2022-12-26T18:13:38.161Z,20.98
2022-12-26T18:16:05.787Z,25.60
2022-12-26T18:18:40.848Z,21.38
2022-12-26T18:21:10.490Z,23.50
2022-12-26T18:23:37.745Z,21.38
2022-12-26T18:26:09.143Z,28.33
2022-12-26T18:28:36.396Z,21.65
2022-12-26T18:31:03.492Z,23.25
2022-12-26T18:33:30.291Z,21.08
2022-12-26T18:35:57.211Z,28.58
2022-12-26T18:38:24.057Z,27.75
2022-12-26T18:40:58.111Z,20.67
2022-12-26T18:43:25.005Z,31.55
2022-12-26T18:45:53.244Z,25.77
2022-12-26T18:48:20.356Z,23.27
2022-12-26T18:50:47.490Z,23.33
2022-12-26T18:53:14.345Z,28.90
2022-12-26T18:55:41.573Z,25.75
2022-12-26T18:58:08.439Z,26.60
2022-12-26T19:00:36.511Z,20.08
2022-12-26T19:03:04.132Z,26.08
2022-12-26T19:05:33.993Z,23.30
2022-12-26T19:08:01.965Z,27.58
2022-12-26T19:10:32.357Z,24.20
2022-12-26T19:13:05.668Z,28.08
2022-12-26T19:15:36.570Z,25.50
2022-12-26T19:18:05.169Z,25.52
2022-12-26T19:20:32.473Z,24.65
2022-12-26T19:22:59.368Z,36.92
2022-12-26T19:25:26.786Z,33.70
2022-12-26T19:27:54.859Z,35.05
2022-12-26T19:30:22.752Z,36.75
2022-12-26T19:32:50.623Z,47.65
2022-12-26T19:35:18.374Z,48.25
2022-12-26T19:37:45.692Z,35.42
2022-12-26T19:40:13.659Z,38.03
2022-12-26T19:42:40.772Z,30.05
2022-12-26T19:45:10.060Z,35.55
2022-12-26T19:47:37.674Z,44.45
2022-12-26T19:50:06.728Z,52.30
2022-12-26T19:52:36.783Z,48.85
2022-12-26T19:55:06.368Z,50.50
2022-12-26T19:57:33.554Z,51.83
2022-12-26T20:00:00.650Z,41.45
2022-12-26T20:02:27.741Z,34.83
2022-12-26T20:04:54.937Z,39.22
2022-12-26T20:07:21.909Z,37.25
2022-12-26T20:09:48.973Z,33.08
2022-12-26T20:12:16.186Z,30.45
2022-12-26T20:15:03.461Z,29.77
2022-12-26T20:17:30.613Z,33.20
2022-12-26T20:19:57.805Z,32.88
2022-12-26T20:22:24.811Z,31.52
2022-12-26T20:24:51.766Z,35.72
2022-12-26T20:27:18.962Z,32.20
2022-12-26T20:29:46.018Z,34.45
2022-12-26T20:32:12.894Z,33.42
2022-12-26T20:34:40.013Z,34.35
2022-12-26T20:37:07.047Z,34.17
2022-12-26T20:39:34.085Z,32.83
2022-12-26T20:42:01.031Z,31.60
2022-12-26T20:44:28.057Z,32.40
2022-12-26T20:46:55.243Z,31.77
2022-12-26T20:49:22.252Z,33.20
2022-12-26T20:51:49.242Z,32.92
2022-12-26T20:54:16.796Z,33.10
2022-12-26T20:56:45.064Z,26.13
2022-12-26T20:59:12.073Z,27.63
2022-12-26T21:01:40.566Z,27.40
2022-12-26T21:04:09.023Z,25.48
2022-12-26T21:06:37.865Z,24.52
2022-12-26T21:09:06.828Z,23.35
2022-12-26T21:11:39.036Z,23.63
2022-12-26T21:14:10.337Z,25.20
2022-12-26T21:16:39.895Z,26.60
2022-12-26T21:19:12.541Z,27.30
2022-12-26T21:21:44.507Z,30.42
2022-12-26T21:24:15.306Z,33.40
2022-12-26T21:26:42.925Z,33.72
2022-12-26T21:29:15.361Z,41.72
2022-12-26T21:31:42.629Z,35.65
2022-12-26T21:34:12.629Z,39.58
2022-12-26T21:36:40.113Z,37.03
2022-12-26T21:39:09.322Z,34.60
2022-12-26T21:41:39.568Z,39.67
2022-12-26T21:44:06.594Z,39.25
2022-12-26T21:46:34.495Z,38.65
2022-12-26T21:49:01.519Z,37.67
2022-12-26T21:51:29.789Z,40.40
2022-12-26T21:54:16.654Z,37.03
2022-12-26T21:56:43.658Z,37.47
2022-12-26T21:59:49.629Z,44.08
2022-12-26T22:02:35.314Z,36.92
2022-12-26T22:05:02.535Z,35.70
2022-12-26T22:07:29.543Z,30.95
2022-12-26T22:09:56.432Z,34.67
2022-12-26T22:12:44.986Z,32.92
2022-12-26T22:15:30.297Z,30.08
2022-12-26T22:17:57.763Z,38.38
2022-12-26T22:20:25.371Z,39.28
2022-12-26T22:22:52.518Z,30.85
2022-12-26T22:25:19.934Z,28.48
2022-12-26T22:27:47.475Z,28.35
2022-12-26T22:30:14.542Z,28.67
2022-12-26T22:32:41.541Z,28.00
2022-12-26T22:35:14.827Z,26.63
2022-12-26T22:37:45.275Z,31.63
2022-12-26T22:40:12.625Z,32.42
2022-12-26T22:42:39.676Z,28.85
2022-12-26T22:45:07.217Z,28.08
2022-12-26T22:47:34.158Z,30.08
2022-12-26T22:50:01.237Z,32.35
2022-12-26T22:52:28.973Z,30.77
2022-12-26T22:54:55.995Z,32.45
2022-12-26T22:57:23.829Z,33.38
2022-12-26T23:00:08.107Z,37.28
2022-12-26T23:02:36.123Z,38.80
2022-12-26T23:05:04.190Z,36.13
2022-12-26T23:07:31.815Z,41.05
2022-12-26T23:09:59.300Z,47.42
2022-12-26T23:12:45.104Z,47.70
2022-12-26T23:15:18.500Z,68.32
2022-12-26T23:18:11.465Z,66.97
2022-12-26T23:20:58.057Z,92.38
2022-12-26T23:23:25.724Z,87.03
2022-12-26T23:25:52.779Z,46.15
2022-12-26T23:28:38.319Z,52.03
2022-12-26T23:31:05.441Z,51.17
2022-12-26T23:33:32.797Z,42.50
2022-12-26T23:36:00.068Z,49.85
2022-12-26T23:38:27.269Z,48.22
2022-12-26T23:40:54.325Z,43.72
2022-12-26T23:43:21.359Z,43.78
2022-12-26T23:45:48.278Z,41.10
2022-12-26T23:48:15.447Z,42.83
2022-12-26T23:50:42.435Z,38.53
2022-12-26T23:53:09.537Z,136.15
2022-12-26T23:55:41.811Z,82.32
2022-12-26T23:58:11.714Z,46.65
